sensor_id;sensor_type;location;lat;lon;timestamp;pressure;altitude;pressure_sealevel;temperature;humidity
28927;BME280;16038;47.692;9.400;2023-02-20T00:00:58;97795.84;;;7.47;94.79
28927;BME280;16038;47.692;9.400;2023-02-20T00:03:24;97796.94;;;7.37;95.00
28927;BME280;16038;47.692;9.400;2023-02-20T00:05:49;97799.06;;;7.40;95.65
28927;BME280;16038;47.692;9.400;2023-02-20T00:08:14;97804.50;;;7.40;95.49
28927;BME280;16038;47.692;9.400;2023-02-20T00:10:40;97809.47;;;7.38;96.14
28927;BME280;16038;47.692;9.400;2023-02-20T00:13:05;97808.34;;;7.39;96.26
28927;BME280;16038;47.692;9.400;2023-02-20T00:15:31;97818.63;;;7.42;96.01
28927;BME280;16038;47.692;9.400;2023-02-20T00:17:56;97813.63;;;7.36;96.39
28927;BME280;16038;47.692;9.400;2023-02-20T00:20:22;97815.72;;;7.39;96.50
28927;BME280;16038;47.692;9.400;2023-02-20T00:22:48;97809.97;;;7.40;96.67
28927;BME280;16038;47.692;9.400;2023-02-20T00:25:14;97809.81;;;7.45;96.72
28927;BME280;16038;47.692;9.400;2023-02-20T00:27:41;97816.06;;;7.46;95.88
28927;BME280;16038;47.692;9.400;2023-02-20T00:30:06;97814.59;;;7.40;96.13
28927;BME280;16038;47.692;9.400;2023-02-20T00:32:31;97810.88;;;7.27;96.56
28927;BME280;16038;47.692;9.400;2023-02-20T00:34:57;97814.41;;;7.19;97.36
28927;BME280;16038;47.692;9.400;2023-02-20T00:37:22;97814.72;;;7.17;98.21
28927;BME280;16038;47.692;9.400;2023-02-20T00:39:48;97815.19;;;7.19;97.88
28927;BME280;16038;47.692;9.400;2023-02-20T00:42:13;97818.88;;;7.23;98.01
28927;BME280;16038;47.692;9.400;2023-02-20T00:44:38;97820.31;;;7.12;98.28
28927;BME280;16038;47.692;9.400;2023-02-20T00:47:04;97817.28;;;7.22;98.35
28927;BME280;16038;47.692;9.400;2023-02-20T00:49:29;97816.47;;;7.22;98.65
28927;BME280;16038;47.692;9.400;2023-02-20T00:51:54;97827.03;;;7.15;98.79
28927;BME280;16038;47.692;9.400;2023-02-20T00:54:20;97832.03;;;7.21;99.08
28927;BME280;16038;47.692;9.400;2023-02-20T00:56:45;97822.25;;;7.20;98.96
28927;BME280;16038;47.692;9.400;2023-02-20T00:59:10;97823.69;;;7.18;98.93
28927;BME280;16038;47.692;9.400;2023-02-20T01:01:36;97820.81;;;7.23;99.06
28927;BME280;16038;47.692;9.400;2023-02-20T01:04:01;97816.47;;;7.22;99.38
28927;BME280;16038;47.692;9.400;2023-02-20T01:06:26;97824.47;;;7.10;99.47
28927;BME280;16038;47.692;9.400;2023-02-20T01:08:51;97827.81;;;7.06;99.72
28927;BME280;16038;47.692;9.400;2023-02-20T01:11:17;97831.06;;;7.17;99.76
28927;BME280;16038;47.692;9.400;2023-02-20T01:13:42;97843.09;;;7.25;98.98
28927;BME280;16038;47.692;9.400;2023-02-20T01:16:07;97838.13;;;7.27;99.08
28927;BME280;16038;47.692;9.400;2023-02-20T01:18:32;97829.31;;;7.21;99.56
28927;BME280;16038;47.692;9.400;2023-02-20T01:20:58;97836.34;;;7.14;99.83
28927;BME280;16038;47.692;9.400;2023-02-20T01:23:23;97832.31;;;7.02;99.61
28927;BME280;16038;47.692;9.400;2023-02-20T01:25:48;97825.56;;;7.00;100.00
28927;BME280;16038;47.692;9.400;2023-02-20T01:28:14;97820.41;;;6.98;100.00
28927;BME280;16038;47.692;9.400;2023-02-20T01:30:39;97824.78;;;7.08;100.00
28927;BME280;16038;47.692;9.400;2023-02-20T01:33:04;97832.63;;;7.01;100.00
28927;BME280;16038;47.692;9.400;2023-02-20T01:35:30;97835.78;;;6.94;100.00
28927;BME280;16038;47.692;9.400;2023-02-20T01:37:59;97835.03;;;7.02;100.00
28927;BME280;16038;47.692;9.400;2023-02-20T01:40:25;97834.69;;;6.95;100.00
28927;BME280;16038;47.692;9.400;2023-02-20T01:42:51;97834.66;;;6.86;100.00
28927;BME280;16038;47.692;9.400;2023-02-20T01:45:17;97838.50;;;6.94;100.00
28927;BME280;16038;47.692;9.400;2023-02-20T01:47:51;97833.56;;;6.96;100.00
28927;BME280;16038;47.692;9.400;2023-02-20T01:50:17;97839.66;;;7.02;100.00
28927;BME280;16038;47.692;9.400;2023-02-20T01:52:44;97837.63;;;7.16;100.00
28927;BME280;16038;47.692;9.400;2023-02-20T01:55:15;97836.38;;;7.22;100.00
28927;BME280;16038;47.692;9.400;2023-02-20T01:57:43;97842.75;;;7.18;99.75
28927;BME280;16038;47.692;9.400;2023-02-20T02:00:13;97838.59;;;7.12;99.58
28927;BME280;16038;47.692;9.400;2023-02-20T02:02:40;97833.66;;;6.82;100.00
28927;BME280;16038;47.692;9.400;2023-02-20T02:05:06;97830.69;;;6.61;100.00
28927;BME280;16038;47.692;9.400;2023-02-20T02:07:34;97827.00;;;6.57;100.00
28927;BME280;16038;47.692;9.400;2023-02-20T02:10:11;97829.25;;;6.64;100.00
28927;BME280;16038;47.692;9.400;2023-02-20T02:12:38;97819.13;;;6.56;100.00
28927;BME280;16038;47.692;9.400;2023-02-20T02:15:14;97832.09;;;6.50;100.00
28927;BME280;16038;47.692;9.400;2023-02-20T02:28:23;97822.25;;;5.95;100.00
28927;BME280;16038;47.692;9.400;2023-02-20T02:38:47;97828.69;;;5.99;100.00
28927;BME280;16038;47.692;9.400;2023-02-20T02:41:25;97828.94;;;5.89;100.00
28927;BME280;16038;47.692;9.400;2023-02-20T02:44:14;97829.56;;;5.72;100.00
28927;BME280;16038;47.692;9.400;2023-02-20T02:46:55;97825.69;;;5.64;100.00
28927;BME280;16038;47.692;9.400;2023-02-20T02:49:34;97816.84;;;5.59;100.00
28927;BME280;16038;47.692;9.400;2023-02-20T02:51:59;97813.63;;;5.57;100.00
28927;BME280;16038;47.692;9.400;2023-02-20T02:54:26;97811.03;;;5.51;100.00
28927;BME280;16038;47.692;9.400;2023-02-20T02:56:52;97816.28;;;5.48;100.00
28927;BME280;16038;47.692;9.400;2023-02-20T02:59:29;97809.81;;;5.44;100.00
28927;BME280;16038;47.692;9.400;2023-02-20T03:02:00;97812.66;;;5.39;100.00
28927;BME280;16038;47.692;9.400;2023-02-20T03:04:27;97810.16;;;5.28;100.00
28927;BME280;16038;47.692;9.400;2023-02-20T03:06:55;97815.22;;;5.21;100.00
28927;BME280;16038;47.692;9.400;2023-02-20T03:09:24;97812.00;;;5.19;100.00
28927;BME280;16038;47.692;9.400;2023-02-20T03:11:51;97805.97;;;5.22;100.00
28927;BME280;16038;47.692;9.400;2023-02-20T03:14:18;97808.56;;;5.27;100.00
28927;BME280;16038;47.692;9.400;2023-02-20T03:17:12;97802.41;;;5.35;100.00
28927;BME280;16038;47.692;9.400;2023-02-20T03:22:05;97796.38;;;5.39;100.00
28927;BME280;16038;47.692;9.400;2023-02-20T03:24:33;97793.03;;;5.42;100.00
28927;BME280;16038;47.692;9.400;2023-02-20T03:27:19;97790.19;;;5.47;100.00
28927;BME280;16038;47.692;9.400;2023-02-20T03:29:45;97788.34;;;5.33;100.00
28927;BME280;16038;47.692;9.400;2023-02-20T03:32:12;97782.50;;;5.26;100.00
28927;BME280;16038;47.692;9.400;2023-02-20T03:34:58;97776.09;;;5.22;100.00
28927;BME280;16038;47.692;9.400;2023-02-20T03:37:43;97776.16;;;5.31;100.00
28927;BME280;16038;47.692;9.400;2023-02-20T03:40:27;97765.03;;;5.19;100.00
28927;BME280;16038;47.692;9.400;2023-02-20T03:43:13;97764.66;;;4.97;100.00
28927;BME280;16038;47.692;9.400;2023-02-20T03:46:09;97771.50;;;4.67;100.00
28927;BME280;16038;47.692;9.400;2023-02-20T03:48:56;97764.56;;;4.47;100.00
28927;BME280;16038;47.692;9.400;2023-02-20T03:51:31;97767.84;;;4.30;100.00
28927;BME280;16038;47.692;9.400;2023-02-20T03:53:57;97767.22;;;4.06;100.00
28927;BME280;16038;47.692;9.400;2023-02-20T03:56:28;97767.56;;;3.85;100.00
28927;BME280;16038;47.692;9.400;2023-02-20T03:58:55;97769.84;;;3.78;100.00
28927;BME280;16038;47.692;9.400;2023-02-20T04:01:23;97772.44;;;3.69;100.00
28927;BME280;16038;47.692;9.400;2023-02-20T04:03:50;97781.28;;;3.56;100.00
28927;BME280;16038;47.692;9.400;2023-02-20T04:06:16;97778.28;;;3.57;100.00
28927;BME280;16038;47.692;9.400;2023-02-20T04:08:48;97778.50;;;3.61;100.00
28927;BME280;16038;47.692;9.400;2023-02-20T04:11:30;97766.06;;;3.60;100.00
28927;BME280;16038;47.692;9.400;2023-02-20T04:13:57;97765.47;;;3.63;100.00
28927;BME280;16038;47.692;9.400;2023-02-20T04:16:24;97773.69;;;3.58;100.00
28927;BME280;16038;47.692;9.400;2023-02-20T04:18:49;97778.06;;;3.54;100.00
28927;BME280;16038;47.692;9.400;2023-02-20T04:21:58;97777.34;;;3.48;100.00
28927;BME280;16038;47.692;9.400;2023-02-20T04:24:05;97767.56;;;3.33;100.00
28927;BME280;16038;47.692;9.400;2023-02-20T04:26:31;97766.59;;;3.24;100.00
28927;BME280;16038;47.692;9.400;2023-02-20T04:28:57;97759.13;;;3.16;100.00
28927;BME280;16038;47.692;9.400;2023-02-20T04:31:22;97768.41;;;3.10;100.00
28927;BME280;16038;47.692;9.400;2023-02-20T04:33:48;97763.53;;;3.12;100.00
28927;BME280;16038;47.692;9.400;2023-02-20T04:36:13;97773.47;;;3.16;100.00
28927;BME280;16038;47.692;9.400;2023-02-20T04:38:39;97767.41;;;3.24;100.00
28927;BME280;16038;47.692;9.400;2023-02-20T04:41:04;97767.91;;;3.27;100.00
28927;BME280;16038;47.692;9.400;2023-02-20T04:43:29;97768.00;;;3.21;100.00
28927;BME280;16038;47.692;9.400;2023-02-20T04:45:54;97768.00;;;3.21;100.00
28927;BME280;16038;47.692;9.400;2023-02-20T04:48:20;97774.81;;;3.19;100.00
28927;BME280;16038;47.692;9.400;2023-02-20T04:50:45;97768.06;;;3.16;100.00
28927;BME280;16038;47.692;9.400;2023-02-20T04:53:11;97757.28;;;3.11;100.00
28927;BME280;16038;47.692;9.400;2023-02-20T04:55:36;97770.88;;;3.06;100.00
28927;BME280;16038;47.692;9.400;2023-02-20T04:58:01;97765.25;;;3.02;100.00
28927;BME280;16038;47.692;9.400;2023-02-20T05:00:26;97774.25;;;2.98;100.00
28927;BME280;16038;47.692;9.400;2023-02-20T05:02:52;97775.19;;;2.88;100.00
28927;BME280;16038;47.692;9.400;2023-02-20T05:05:21;97772.25;;;2.84;100.00
28927;BME280;16038;47.692;9.400;2023-02-20T05:07:47;97779.13;;;2.77;100.00
28927;BME280;16038;47.692;9.400;2023-02-20T05:10:16;97773.75;;;2.72;100.00
28927;BME280;16038;47.692;9.400;2023-02-20T05:12:48;97763.59;;;2.63;100.00
28927;BME280;16038;47.692;9.400;2023-02-20T05:15:13;97765.28;;;2.59;100.00
28927;BME280;16038;47.692;9.400;2023-02-20T05:17:39;97767.66;;;2.61;100.00
28927;BME280;16038;47.692;9.400;2023-02-20T05:20:04;97765.50;;;2.63;100.00
28927;BME280;16038;47.692;9.400;2023-02-20T05:22:30;97776.53;;;2.66;100.00
28927;BME280;16038;47.692;9.400;2023-02-20T05:24:56;97770.25;;;2.71;100.00
28927;BME280;16038;47.692;9.400;2023-02-20T05:27:21;97771.94;;;2.67;100.00
28927;BME280;16038;47.692;9.400;2023-02-20T05:29:48;97772.81;;;2.38;100.00
28927;BME280;16038;47.692;9.400;2023-02-20T05:32:14;97779.06;;;2.34;100.00
28927;BME280;16038;47.692;9.400;2023-02-20T05:34:40;97784.47;;;2.34;100.00
28927;BME280;16038;47.692;9.400;2023-02-20T05:37:05;97779.66;;;2.31;100.00
28927;BME280;16038;47.692;9.400;2023-02-20T05:39:31;97770.38;;;2.13;100.00
28927;BME280;16038;47.692;9.400;2023-02-20T05:41:56;97768.94;;;1.91;100.00
28927;BME280;16038;47.692;9.400;2023-02-20T05:44:21;97759.41;;;1.69;100.00
28927;BME280;16038;47.692;9.400;2023-02-20T05:46:47;97761.41;;;1.53;100.00
28927;BME280;16038;47.692;9.400;2023-02-20T05:49:12;97765.47;;;1.51;100.00
28927;BME280;16038;47.692;9.400;2023-02-20T05:51:37;97763.22;;;1.63;100.00
28927;BME280;16038;47.692;9.400;2023-02-20T05:54:03;97763.38;;;1.77;100.00
28927;BME280;16038;47.692;9.400;2023-02-20T05:56:28;97762.47;;;1.87;100.00
28927;BME280;16038;47.692;9.400;2023-02-20T05:58:54;97775.84;;;1.73;100.00
28927;BME280;16038;47.692;9.400;2023-02-20T06:01:21;97774.19;;;1.77;100.00
28927;BME280;16038;47.692;9.400;2023-02-20T06:03:46;97773.50;;;1.90;100.00
28927;BME280;16038;47.692;9.400;2023-02-20T06:06:12;97775.16;;;1.91;100.00
28927;BME280;16038;47.692;9.400;2023-02-20T06:08:38;97767.06;;;1.86;100.00
28927;BME280;16038;47.692;9.400;2023-02-20T06:11:03;97769.28;;;1.79;100.00
28927;BME280;16038;47.692;9.400;2023-02-20T06:13:28;97768.56;;;1.34;100.00
28927;BME280;16038;47.692;9.400;2023-02-20T06:15:54;97765.44;;;1.11;100.00
28927;BME280;16038;47.692;9.400;2023-02-20T06:18:19;97775.19;;;1.07;100.00
28927;BME280;16038;47.692;9.400;2023-02-20T06:20:44;97766.56;;;1.05;100.00
28927;BME280;16038;47.692;9.400;2023-02-20T06:23:09;97769.00;;;1.07;100.00
28927;BME280;16038;47.692;9.400;2023-02-20T06:25:35;97769.50;;;1.14;100.00
28927;BME280;16038;47.692;9.400;2023-02-20T06:28:00;97760.53;;;1.19;100.00
28927;BME280;16038;47.692;9.400;2023-02-20T06:30:25;97763.78;;;1.21;100.00
28927;BME280;16038;47.692;9.400;2023-02-20T06:32:50;97771.25;;;1.34;100.00
28927;BME280;16038;47.692;9.400;2023-02-20T06:35:16;97761.47;;;1.43;100.00
28927;BME280;16038;47.692;9.400;2023-02-20T06:37:41;97776.22;;;1.56;100.00
28927;BME280;16038;47.692;9.400;2023-02-20T06:40:07;97777.56;;;1.59;100.00
28927;BME280;16038;47.692;9.400;2023-02-20T06:42:32;97782.81;;;1.79;100.00
28927;BME280;16038;47.692;9.400;2023-02-20T06:44:58;97777.28;;;1.95;100.00
28927;BME280;16038;47.692;9.400;2023-02-20T06:47:23;97772.75;;;2.14;100.00
28927;BME280;16038;47.692;9.400;2023-02-20T06:49:48;97781.47;;;2.35;100.00
28927;BME280;16038;47.692;9.400;2023-02-20T06:52:13;97779.69;;;2.49;100.00
28927;BME280;16038;47.692;9.400;2023-02-20T06:54:39;97772.28;;;2.60;100.00
28927;BME280;16038;47.692;9.400;2023-02-20T06:57:05;97771.66;;;2.68;100.00
28927;BME280;16038;47.692;9.400;2023-02-20T06:59:30;97774.28;;;2.74;100.00
28927;BME280;16038;47.692;9.400;2023-02-20T07:01:56;97772.09;;;2.52;100.00
28927;BME280;16038;47.692;9.400;2023-02-20T07:04:22;97773.03;;;2.42;100.00
28927;BME280;16038;47.692;9.400;2023-02-20T07:06:48;97776.53;;;2.18;100.00
28927;BME280;16038;47.692;9.400;2023-02-20T07:09:13;97784.88;;;2.46;100.00
28927;BME280;16038;47.692;9.400;2023-02-20T07:11:39;97777.47;;;3.00;100.00
28927;BME280;16038;47.692;9.400;2023-02-20T07:14:05;97783.28;;;4.02;100.00
28927;BME280;16038;47.692;9.400;2023-02-20T07:16:30;97772.41;;;4.76;100.00
28927;BME280;16038;47.692;9.400;2023-02-20T07:18:56;97783.78;;;5.43;100.00
28927;BME280;16038;47.692;9.400;2023-02-20T07:21:21;97782.47;;;6.22;100.00
28927;BME280;16038;47.692;9.400;2023-02-20T07:23:50;97782.94;;;6.95;95.94
28927;BME280;16038;47.692;9.400;2023-02-20T07:26:19;97777.38;;;7.18;89.64
28927;BME280;16038;47.692;9.400;2023-02-20T07:28:44;97787.19;;;7.89;85.98
28927;BME280;16038;47.692;9.400;2023-02-20T07:31:10;97789.84;;;8.41;83.47
28927;BME280;16038;47.692;9.400;2023-02-20T07:33:35;97791.66;;;8.75;79.86
28927;BME280;16038;47.692;9.400;2023-02-20T07:36:02;97793.84;;;8.91;75.71
28927;BME280;16038;47.692;9.400;2023-02-20T07:38:27;97782.69;;;6.74;88.28
28927;BME280;16038;47.692;9.400;2023-02-20T07:40:52;97776.91;;;6.67;93.20
28927;BME280;16038;47.692;9.400;2023-02-20T07:43:18;97777.16;;;6.97;89.76
28927;BME280;16038;47.692;9.400;2023-02-20T07:45:43;97779.03;;;7.89;88.07
28927;BME280;16038;47.692;9.400;2023-02-20T07:48:08;97779.63;;;9.06;80.61
28927;BME280;16038;47.692;9.400;2023-02-20T07:50:33;97772.44;;;9.86;75.10
28927;BME280;16038;47.692;9.400;2023-02-20T07:52:59;97771.97;;;10.38;71.69
28927;BME280;16038;47.692;9.400;2023-02-20T07:55:24;97772.59;;;10.81;68.66
28927;BME280;16038;47.692;9.400;2023-02-20T07:57:49;97774.06;;;10.66;68.71
28927;BME280;16038;47.692;9.400;2023-02-20T08:00:18;97774.66;;;9.29;77.83
28927;BME280;16038;47.692;9.400;2023-02-20T08:02:44;97782.44;;;8.50;78.71
28927;BME280;16038;47.692;9.400;2023-02-20T08:05:10;97778.88;;;8.97;81.51
28927;BME280;16038;47.692;9.400;2023-02-20T08:07:35;97778.22;;;7.53;86.14
28927;BME280;16038;47.692;9.400;2023-02-20T08:10:01;97775.44;;;7.10;93.56
28927;BME280;16038;47.692;9.400;2023-02-20T08:12:26;97776.13;;;7.50;92.89
28927;BME280;16038;47.692;9.400;2023-02-20T08:14:51;97771.03;;;6.91;95.79
28927;BME280;16038;47.692;9.400;2023-02-20T08:17:17;97777.69;;;7.25;96.31
28927;BME280;16038;47.692;9.400;2023-02-20T08:19:42;97776.66;;;8.52;92.37
28927;BME280;16038;47.692;9.400;2023-02-20T08:22:08;97768.34;;;10.46;80.11
28927;BME280;16038;47.692;9.400;2023-02-20T08:24:33;97773.50;;;11.75;69.69
28927;BME280;16038;47.692;9.400;2023-02-20T08:26:58;97763.44;;;12.83;64.51
28927;BME280;16038;47.692;9.400;2023-02-20T08:29:23;97772.16;;;13.72;61.53
28927;BME280;16038;47.692;9.400;2023-02-20T08:31:49;97773.91;;;14.39;58.55
28927;BME280;16038;47.692;9.400;2023-02-20T08:34:14;97771.59;;;12.32;65.53
28927;BME280;16038;47.692;9.400;2023-02-20T08:36:39;97764.31;;;12.87;63.18
28927;BME280;16038;47.692;9.400;2023-02-20T08:39:05;97752.25;;;13.98;58.53
28927;BME280;16038;47.692;9.400;2023-02-20T08:41:30;97764.50;;;13.10;60.43
28927;BME280;16038;47.692;9.400;2023-02-20T08:43:55;97771.25;;;13.13;59.16
28927;BME280;16038;47.692;9.400;2023-02-20T08:46:20;97756.31;;;13.65;59.82
28927;BME280;16038;47.692;9.400;2023-02-20T08:48:46;97759.41;;;14.88;53.75
28927;BME280;16038;47.692;9.400;2023-02-20T08:51:11;97752.00;;;14.26;56.24
28927;BME280;16038;47.692;9.400;2023-02-20T08:53:37;97743.66;;;14.65;54.39
28927;BME280;16038;47.692;9.400;2023-02-20T08:56:03;97744.41;;;14.62;54.23
28927;BME280;16038;47.692;9.400;2023-02-20T08:58:29;97743.88;;;15.03;52.89
28927;BME280;16038;47.692;9.400;2023-02-20T09:00:54;97742.97;;;14.95;52.83
28927;BME280;16038;47.692;9.400;2023-02-20T09:03:20;97742.81;;;12.89;58.13
28927;BME280;16038;47.692;9.400;2023-02-20T09:05:45;97738.63;;;12.95;59.59
28927;BME280;16038;47.692;9.400;2023-02-20T09:08:11;97731.22;;;13.90;55.43
28927;BME280;16038;47.692;9.400;2023-02-20T09:10:36;97737.25;;;15.34;52.10
28927;BME280;16038;47.692;9.400;2023-02-20T09:13:01;97722.28;;;15.65;50.59
28927;BME280;16038;47.692;9.400;2023-02-20T09:15:27;97728.22;;;15.10;51.97
28927;BME280;16038;47.692;9.400;2023-02-20T09:17:53;97722.59;;;15.91;49.73
28927;BME280;16038;47.692;9.400;2023-02-20T09:20:19;97721.72;;;16.20;48.48
28927;BME280;16038;47.692;9.400;2023-02-20T09:22:45;97723.81;;;15.63;48.95
28927;BME280;16038;47.692;9.400;2023-02-20T09:25:11;97729.56;;;15.81;49.88
28927;BME280;16038;47.692;9.400;2023-02-20T09:27:36;97724.81;;;16.12;48.07
28927;BME280;16038;47.692;9.400;2023-02-20T09:30:02;97726.22;;;17.29;46.17
28927;BME280;16038;47.692;9.400;2023-02-20T09:32:31;97714.34;;;18.16;43.81
28927;BME280;16038;47.692;9.400;2023-02-20T09:34:56;97717.94;;;18.27;42.93
28927;BME280;16038;47.692;9.400;2023-02-20T09:37:22;97713.56;;;17.28;44.66
28927;BME280;16038;47.692;9.400;2023-02-20T09:39:47;97705.56;;;15.24;48.15
28927;BME280;16038;47.692;9.400;2023-02-20T09:49:50;97706.84;;;18.24;42.94
28927;BME280;16038;47.692;9.400;2023-02-20T09:52:17;97708.66;;;15.80;47.31
28927;BME280;16038;47.692;9.400;2023-02-20T09:54:45;97695.44;;;16.37;47.03
28927;BME280;16038;47.692;9.400;2023-02-20T09:57:13;97696.84;;;17.10;44.42
28927;BME280;16038;47.692;9.400;2023-02-20T09:59:40;97691.69;;;17.85;42.54
28927;BME280;16038;47.692;9.400;2023-02-20T10:02:16;97685.91;;;18.62;41.05
28927;BME280;16038;47.692;9.400;2023-02-20T10:04:43;97689.06;;;19.11;40.01
28927;BME280;16038;47.692;9.400;2023-02-20T10:09:44;97685.25;;;17.63;43.74
28927;BME280;16038;47.692;9.400;2023-02-20T10:12:14;97687.47;;;16.73;44.91
28927;BME280;16038;47.692;9.400;2023-02-20T10:15:00;97691.63;;;15.44;46.91
28927;BME280;16038;47.692;9.400;2023-02-20T10:20:03;97694.75;;;16.07;46.54
28927;BME280;16038;47.692;9.400;2023-02-20T10:22:34;97683.75;;;15.46;47.50
28927;BME280;16038;47.692;9.400;2023-02-20T10:27:50;97689.16;;;15.99;46.43
28927;BME280;16038;47.692;9.400;2023-02-20T10:30:19;97694.13;;;15.83;46.27
28927;BME280;16038;47.692;9.400;2023-02-20T10:32:52;97684.63;;;16.62;43.97
28927;BME280;16038;47.692;9.400;2023-02-20T10:35:22;97689.38;;;16.21;45.13
28927;BME280;16038;47.692;9.400;2023-02-20T10:37:50;97687.34;;;16.14;45.85
28927;BME280;16038;47.692;9.400;2023-02-20T10:42:47;97676.34;;;16.66;44.13
28927;BME280;16038;47.692;9.400;2023-02-20T10:47:47;97680.72;;;16.22;44.72
28927;BME280;16038;47.692;9.400;2023-02-20T10:50:19;97666.31;;;16.99;43.15
28927;BME280;16038;47.692;9.400;2023-02-20T10:55:42;97668.84;;;16.67;43.48
28927;BME280;16038;47.692;9.400;2023-02-20T10:58:32;97659.34;;;16.19;44.05
28927;BME280;16038;47.692;9.400;2023-02-20T11:01:02;97661.91;;;16.39;44.19
28927;BME280;16038;47.692;9.400;2023-02-20T11:05:58;97652.75;;;16.35;44.57
28927;BME280;16038;47.692;9.400;2023-02-20T11:08:25;97651.94;;;15.56;45.21
28927;BME280;16038;47.692;9.400;2023-02-20T11:10:52;97652.63;;;16.20;44.59
28927;BME280;16038;47.692;9.400;2023-02-20T11:13:19;97642.97;;;16.41;44.52
28927;BME280;16038;47.692;9.400;2023-02-20T11:15:47;97645.44;;;16.09;44.59
28927;BME280;16038;47.692;9.400;2023-02-20T11:18:16;97639.16;;;15.44;45.17
28927;BME280;16038;47.692;9.400;2023-02-20T11:20:45;97641.19;;;16.22;44.82
28927;BME280;16038;47.692;9.400;2023-02-20T11:23:33;97638.91;;;16.31;44.78
28927;BME280;16038;47.692;9.400;2023-02-20T11:25:56;97635.06;;;16.43;44.58
28927;BME280;16038;47.692;9.400;2023-02-20T11:28:36;97636.47;;;16.74;43.40
28927;BME280;16038;47.692;9.400;2023-02-20T11:31:04;97634.66;;;16.89;43.75
28927;BME280;16038;47.692;9.400;2023-02-20T11:33:31;97622.59;;;16.15;44.85
28927;BME280;16038;47.692;9.400;2023-02-20T11:36:07;97623.09;;;15.53;45.27
28927;BME280;16038;47.692;9.400;2023-02-20T11:38:33;97623.59;;;15.28;46.68
28927;BME280;16038;47.692;9.400;2023-02-20T11:43:27;97610.59;;;15.29;46.52
28927;BME280;16038;47.692;9.400;2023-02-20T11:48:55;97606.75;;;15.07;47.67
28927;BME280;16038;47.692;9.400;2023-02-20T11:59:30;97589.31;;;17.15;43.66
28927;BME280;16038;47.692;9.400;2023-02-20T12:04:40;97568.53;;;17.68;42.80
28927;BME280;16038;47.692;9.400;2023-02-20T12:09:44;97567.59;;;17.28;43.36
28927;BME280;16038;47.692;9.400;2023-02-20T12:12:11;97561.47;;;18.10;41.41
28927;BME280;16038;47.692;9.400;2023-02-20T12:14:37;97557.09;;;18.56;40.84
28927;BME280;16038;47.692;9.400;2023-02-20T12:17:46;97546.81;;;17.92;40.87
28927;BME280;16038;47.692;9.400;2023-02-20T12:20:06;97546.38;;;17.72;40.75
28927;BME280;16038;47.692;9.400;2023-02-20T12:22:34;97552.56;;;17.18;42.07
28927;BME280;16038;47.692;9.400;2023-02-20T12:35:34;97523.41;;;17.78;40.33
28927;BME280;16038;47.692;9.400;2023-02-20T12:38:24;97519.50;;;18.01;40.31
28927;BME280;16038;47.692;9.400;2023-02-20T12:56:31;97498.78;;;17.27;41.77
28927;BME280;16038;47.692;9.400;2023-02-20T13:01:27;97483.19;;;16.82;45.53
28927;BME280;16038;47.692;9.400;2023-02-20T13:11:15;97447.94;;;15.95;47.53
28927;BME280;16038;47.692;9.400;2023-02-20T13:13:52;97447.75;;;15.25;49.33
28927;BME280;16038;47.692;9.400;2023-02-20T13:16:44;97453.09;;;15.07;49.74
28927;BME280;16038;47.692;9.400;2023-02-20T13:21:37;97461.81;;;14.49;51.60
28927;BME280;16038;47.692;9.400;2023-02-20T13:27:01;97445.00;;;14.01;52.23
28927;BME280;16038;47.692;9.400;2023-02-20T13:29:31;97445.59;;;13.87;53.11
28927;BME280;16038;47.692;9.400;2023-02-20T13:31:57;97440.44;;;13.16;54.33
28927;BME280;16038;47.692;9.400;2023-02-20T13:34:28;97435.38;;;13.18;55.38
28927;BME280;16038;47.692;9.400;2023-02-20T13:36:54;97429.94;;;13.22;55.37
28927;BME280;16038;47.692;9.400;2023-02-20T13:46:57;97418.00;;;13.83;54.58
28927;BME280;16038;47.692;9.400;2023-02-20T13:54:51;97408.06;;;13.52;55.81
28927;BME280;16038;47.692;9.400;2023-02-20T13:57:17;97403.13;;;13.15;56.36
28927;BME280;16038;47.692;9.400;2023-02-20T13:59:42;97391.00;;;13.43;56.83
28927;BME280;16038;47.692;9.400;2023-02-20T14:02:12;97381.25;;;13.45;56.60
28927;BME280;16038;47.692;9.400;2023-02-20T14:04:51;97382.44;;;13.48;56.85
28927;BME280;16038;47.692;9.400;2023-02-20T14:07:25;97374.38;;;12.89;59.40
28927;BME280;16038;47.692;9.400;2023-02-20T14:10:01;97371.50;;;12.82;59.87
28927;BME280;16038;47.692;9.400;2023-02-20T14:12:28;97377.09;;;12.66;59.50
28927;BME280;16038;47.692;9.400;2023-02-20T14:14:53;97370.50;;;12.71;60.32
28927;BME280;16038;47.692;9.400;2023-02-20T14:17:20;97372.34;;;12.86;60.62
28927;BME280;16038;47.692;9.400;2023-02-20T14:19:48;97366.75;;;12.59;60.96
28927;BME280;16038;47.692;9.400;2023-02-20T14:24:45;97359.03;;;12.46;60.30
28927;BME280;16038;47.692;9.400;2023-02-20T14:27:23;97366.03;;;12.04;62.89
28927;BME280;16038;47.692;9.400;2023-02-20T14:29:53;97353.84;;;12.21;63.41
28927;BME280;16038;47.692;9.400;2023-02-20T14:32:28;97356.22;;;12.22;63.31
28927;BME280;16038;47.692;9.400;2023-02-20T14:40:22;97339.91;;;12.10;63.64
28927;BME280;16038;47.692;9.400;2023-02-20T14:42:48;97345.59;;;12.21;64.21
28927;BME280;16038;47.692;9.400;2023-02-20T14:45:15;97343.56;;;12.37;63.08
28927;BME280;16038;47.692;9.400;2023-02-20T14:47:57;97331.41;;;12.38;62.20
28927;BME280;16038;47.692;9.400;2023-02-20T14:50:30;97323.47;;;12.33;61.89
28927;BME280;16038;47.692;9.400;2023-02-20T14:53:15;97320.34;;;12.35;62.47
28927;BME280;16038;47.692;9.400;2023-02-20T14:55:40;97315.28;;;12.37;62.26
28927;BME280;16038;47.692;9.400;2023-02-20T14:58:06;97326.28;;;12.37;62.22
28927;BME280;16038;47.692;9.400;2023-02-20T15:00:36;97318.44;;;12.35;61.74
28927;BME280;16038;47.692;9.400;2023-02-20T15:03:05;97328.44;;;12.08;63.22
28927;BME280;16038;47.692;9.400;2023-02-20T15:05:32;97331.72;;;11.94;63.49
28927;BME280;16038;47.692;9.400;2023-02-20T15:08:44;97326.22;;;11.59;63.87
28927;BME280;16038;47.692;9.400;2023-02-20T15:10:47;97329.47;;;11.29;64.42
28927;BME280;16038;47.692;9.400;2023-02-20T15:13:23;97332.47;;;11.24;64.38
28927;BME280;16038;47.692;9.400;2023-02-20T15:15:51;97341.66;;;11.32;63.05